Time;durP1;ratioP1;P1;durP2;ratioP2;P2;SDS_P1;SDS_P2;PMS_P1;PMS_P2;Temp;Humidity;BMP_temperature;BMP_pressure;BME280_temperature;BME280_humidity;BME280_pressure;Samples;Min_cycle;Max_cycle;Signal;HPM_P1;HPM_P2
2023/03/17 00:00:48;;;;;;;1.00;0.90;;;;;;;10.56;61.39;99817.32;105162;1262;61611;-69
2023/03/17 00:03:24;;;;;;;0.70;0.70;;;;;;;10.62;60.71;99819.92;104795;1257;72674;-70
2023/03/17 00:05:53;;;;;;;1.40;0.80;;;;;;;10.64;60.38;99813.33;105330;1261;69153;-69
2023/03/17 00:08:28;;;;;;;0.90;0.80;;;;;;;10.69;59.84;99815.24;105068;1249;71543;-70
2023/03/17 00:10:58;;;;;;;1.30;1.00;;;;;;;10.68;59.73;99816.19;105144;1264;61679;-61
2023/03/17 00:13:27;;;;;;;1.00;0.90;;;;;;;10.67;59.75;99818.47;104943;1254;61610;-62
2023/03/17 00:16:00;;;;;;;1.50;1.00;;;;;;;10.71;59.50;99822.16;105365;1253;73435;-66
2023/03/17 00:18:34;;;;;;;1.10;0.80;;;;;;;10.75;58.68;99823.58;105022;1254;69636;-67
2023/03/17 00:21:04;;;;;;;1.00;1.00;;;;;;;10.71;58.55;99823.55;104877;1254;70990;-65
2023/03/17 00:23:34;;;;;;;1.00;0.80;;;;;;;10.66;58.54;99825.00;106403;1250;61587;-67
2023/03/17 00:26:02;;;;;;;1.20;0.70;;;;;;;10.65;58.49;99823.96;108898;1247;59861;-67
2023/03/17 00:28:33;;;;;;;1.20;0.60;;;;;;;10.63;58.43;99823.91;106305;1252;73425;-66
2023/03/17 00:31:10;;;;;;;0.60;0.60;;;;;;;10.58;58.51;99824.44;105468;1253;67739;-65
2023/03/17 00:33:39;;;;;;;0.70;0.60;;;;;;;10.63;58.38;99828.81;105069;1256;71566;-65
2023/03/17 00:36:12;;;;;;;2.50;1.20;;;;;;;10.66;58.40;99826.20;104866;1256;61711;-66
2023/03/17 00:38:40;;;;;;;1.60;0.70;;;;;;;10.66;57.68;99832.20;105192;1267;61069;-65
2023/03/17 00:41:09;;;;;;;1.10;0.70;;;;;;;10.69;57.28;99835.06;105125;1256;72048;-66
2023/03/17 00:43:39;;;;;;;1.10;0.60;;;;;;;10.64;57.40;99839.64;105202;1271;69124;-65
2023/03/17 00:46:15;;;;;;;3.00;0.80;;;;;;;10.68;57.30;99837.54;105212;1251;72200;-66
2023/03/17 00:48:44;;;;;;;0.90;0.90;;;;;;;10.66;57.01;99837.79;105280;1252;61692;-65
2023/03/17 00:51:12;;;;;;;1.20;0.90;;;;;;;10.66;56.61;99839.21;105227;1256;61660;-66
2023/03/17 00:53:42;;;;;;;0.90;0.60;;;;;;;10.66;56.26;99836.90;105137;1252;72781;-66
2023/03/17 00:56:18;;;;;;;1.80;1.00;;;;;;;10.60;56.47;99838.90;105281;1258;69032;-66
2023/03/17 00:58:50;;;;;;;0.60;0.60;;;;;;;10.70;56.63;99834.64;105138;1251;72209;-66
2023/03/17 01:01:18;;;;;;;1.30;0.80;;;;;;;10.70;56.34;99832.55;105071;1252;61701;-66
2023/03/17 01:03:47;;;;;;;0.90;0.70;;;;;;;10.71;56.06;99834.63;105165;1268;61581;-65
2023/03/17 01:06:16;;;;;;;1.10;0.80;;;;;;;10.73;55.73;99829.27;105095;1252;73400;-65
2023/03/17 01:08:48;;;;;;;2.00;1.70;;;;;;;10.70;55.90;99830.95;105160;1261;69015;-68
2023/03/17 01:11:19;;;;;;;1.30;0.80;;;;;;;10.74;55.37;99834.30;105042;1253;71308;-65
2023/03/17 01:13:48;;;;;;;2.50;0.90;;;;;;;10.80;55.27;99836.55;104867;1254;61668;-66
2023/03/17 01:16:16;;;;;;;3.00;1.00;;;;;;;10.79;55.06;99841.33;105180;1249;61656;-67
2023/03/17 01:18:45;;;;;;;1.20;1.00;;;;;;;10.74;54.76;99836.23;105185;1255;73505;-65
2023/03/17 01:21:14;;;;;;;1.50;1.10;;;;;;;10.73;55.48;99836.84;105170;1249;68816;-66
2023/03/17 01:23:43;;;;;;;1.50;1.00;;;;;;;10.73;55.28;99837.86;105126;1254;72884;-65
2023/03/17 01:26:11;;;;;;;1.20;0.50;;;;;;;10.68;55.31;99838.77;105210;1250;62280;-65
2023/03/17 01:28:40;;;;;;;1.10;0.70;;;;;;;10.62;55.28;99839.02;105196;1248;61783;-65
2023/03/17 01:31:09;;;;;;;1.80;0.80;;;;;;;10.61;55.08;99835.55;105135;1252;73168;-66
2023/03/17 01:33:37;;;;;;;1.60;0.90;;;;;;;10.63;55.19;99836.32;105188;1266;67974;-65
2023/03/17 01:36:06;;;;;;;1.20;1.10;;;;;;;10.66;54.93;99836.74;105281;1249;73035;-66
2023/03/17 01:38:35;;;;;;;0.90;0.70;;;;;;;10.62;54.80;99837.08;105934;1249;61667;-67
2023/03/17 01:41:03;;;;;;;0.60;0.60;;;;;;;10.62;55.05;99837.42;108496;1251;60476;-66
2023/03/17 01:43:33;;;;;;;1.40;0.80;;;;;;;10.72;55.13;99842.46;105477;1252;72431;-66
2023/03/17 01:46:19;;;;;;;1.00;0.60;;;;;;;10.72;54.83;99844.41;105372;1247;68118;-65
2023/03/17 01:48:53;;;;;;;0.80;0.70;;;;;;;10.72;54.46;99850.73;105465;1254;71835;-66
2023/03/17 01:51:26;;;;;;;0.80;0.70;;;;;;;10.70;54.74;99851.51;105155;1264;61676;-65
2023/03/17 01:53:54;;;;;;;1.00;0.90;;;;;;;10.68;55.13;99854.18;105023;1251;61633;-65
2023/03/17 01:56:23;;;;;;;1.60;0.80;;;;;;;10.66;54.92;99853.77;104882;1253;72541;-66
2023/03/17 02:01:47;;;;;;;1.40;0.80;;;;;;;9.55;64.93;99857.11;102058;1292;600288;-64
2023/03/17 02:04:16;;;;;;;1.20;1.00;;;;;;;10.60;56.54;99859.07;104160;1269;60486;-65
2023/03/17 02:06:46;;;;;;;0.50;0.50;;;;;;;10.66;55.73;99858.48;104189;1262;60499;-67
2023/03/17 02:09:26;;;;;;;1.50;0.80;;;;;;;10.72;55.26;99858.05;104098;1274;71813;-67
2023/03/17 02:11:56;;;;;;;0.60;0.60;;;;;;;10.80;55.43;99863.21;104227;1262;69764;-64
2023/03/17 02:14:24;;;;;;;0.80;0.70;;;;;;;10.84;54.60;99862.33;104475;1266;217722;-68
2023/03/17 02:16:56;;;;;;;1.10;0.90;;;;;;;10.87;54.36;99868.70;105133;1248;60417;-65
2023/03/17 02:19:25;;;;;;;1.30;0.80;;;;;;;10.84;54.00;99873.35;105299;1254;60475;-65
2023/03/17 02:21:55;;;;;;;1.60;0.80;;;;;;;10.76;53.82;99871.94;105368;1261;70818;-64
2023/03/17 02:24:38;;;;;;;0.60;0.60;;;;;;;10.78;53.89;99871.88;104672;1255;68451;-65
2023/03/17 02:27:40;;;;;;;0.90;0.60;;;;;;;10.76;53.70;99879.99;105397;1253;71646;-61
2023/03/17 02:30:10;;;;;;;1.10;0.60;;;;;;;10.83;53.61;99882.90;105216;1263;60866;-66
2023/03/17 02:32:41;;;;;;;2.00;0.80;;;;;;;10.70;53.21;99887.77;105308;1268;60773;-66
2023/03/17 02:35:15;;;;;;;1.00;0.60;;;;;;;10.59;53.80;99892.40;105502;1252;72843;-66
2023/03/17 02:37:45;;;;;;;1.70;0.60;;;;;;;10.63;54.39;99896.65;105041;1247;70785;-66
2023/03/17 02:40:14;;;;;;;1.00;0.40;;;;;;;10.69;54.19;99899.20;105391;1248;71248;-67
2023/03/17 02:42:45;;;;;;;0.60;0.40;;;;;;;10.62;54.08;99898.27;105265;1248;62017;-66
2023/03/17 02:45:14;;;;;;;0.60;0.60;;;;;;;10.61;53.92;99900.55;105349;1260;60734;-67
2023/03/17 02:47:46;;;;;;;1.50;0.60;;;;;;;10.53;54.33;99895.83;105513;1253;71702;-67
2023/03/17 02:50:17;;;;;;;0.90;0.60;;;;;;;10.57;54.56;99900.39;105083;1264;68566;-66
2023/03/17 02:52:46;;;;;;;1.10;0.50;;;;;;;10.62;54.01;99900.73;105259;1269;71432;-67
2023/03/17 02:55:15;;;;;;;1.00;0.60;;;;;;;10.70;53.59;99902.35;105369;1249;60767;-67
2023/03/17 02:57:43;;;;;;;1.50;0.60;;;;;;;10.63;53.67;99906.27;105381;1248;61343;-70
2023/03/17 03:00:13;;;;;;;1.00;0.60;;;;;;;10.53;53.49;99905.27;105183;1251;71822;-67
2023/03/17 03:02:41;;;;;;;0.40;0.40;;;;;;;10.54;53.64;99908.05;105469;1254;69054;-61
2023/03/17 03:05:12;;;;;;;0.30;0.30;;;;;;;10.55;53.83;99907.64;105429;1253;71428;-63
2023/03/17 03:07:41;;;;;;;0.60;0.60;;;;;;;10.47;54.25;99911.10;105610;1247;60770;-63
2023/03/17 03:10:10;;;;;;;0.30;0.30;;;;;;;10.43;54.15;99908.79;105271;1249;60847;-69
2023/03/17 03:12:44;;;;;;;0.70;0.50;;;;;;;10.51;54.57;99903.77;105376;1248;71875;-68
2023/03/17 03:15:13;;;;;;;1.50;0.60;;;;;;;10.39;54.64;99904.95;105342;1260;68240;-67
2023/03/17 03:17:42;;;;;;;1.00;0.40;;;;;;;10.51;54.61;99907.63;105423;1253;71688;-67
2023/03/17 03:20:12;;;;;;;1.30;0.40;;;;;;;10.61;54.00;99908.64;105166;1271;60856;-68
2023/03/17 03:22:40;;;;;;;0.50;0.50;;;;;;;10.61;54.06;99914.61;105388;1260;60860;-67
2023/03/17 03:25:09;;;;;;;0.40;0.40;;;;;;;10.58;53.52;99911.91;105483;1249;72393;-68
2023/03/17 03:27:37;;;;;;;0.50;0.40;;;;;;;10.60;53.72;99916.23;105248;1254;69020;-70
2023/03/17 03:30:08;;;;;;;1.60;0.90;;;;;;;10.62;53.54;99916.13;105237;1248;72219;-69
2023/03/17 03:32:38;;;;;;;0.90;0.50;;;;;;;10.54;53.55;99920.99;105022;1254;60962;-70
2023/03/17 03:35:07;;;;;;;0.50;0.30;;;;;;;10.59;53.70;99925.38;105521;1248;60725;-71
2023/03/17 03:37:37;;;;;;;0.60;0.40;;;;;;;10.37;53.66;99921.11;105431;1253;72613;-70
2023/03/17 03:40:06;;;;;;;1.50;0.60;;;;;;;10.46;53.82;99925.33;108851;1248;68645;-69
2023/03/17 03:42:34;;;;;;;0.60;0.30;;;;;;;10.52;53.68;99927.38;107654;1248;72737;-70
2023/03/17 03:45:03;;;;;;;0.50;0.40;;;;;;;10.57;53.63;99928.77;105561;1251;60777;-70
2023/03/17 03:47:33;;;;;;;0.50;0.40;;;;;;;10.63;53.42;99930.30;105383;1248;60846;-70
2023/03/17 03:50:08;;;;;;;0.80;0.60;;;;;;;10.74;52.84;99934.45;105999;1247;73280;-70
2023/03/17 03:52:37;;;;;;;0.50;0.50;;;;;;;10.76;52.68;99935.76;105560;1261;68158;-70
2023/03/17 03:55:05;;;;;;;0.40;0.30;;;;;;;10.69;52.76;99936.57;105269;1261;72964;-69
2023/03/17 03:57:35;;;;;;;2.70;0.70;;;;;;;10.70;52.68;99940.70;105306;1248;60889;-70
2023/03/17 04:00:04;;;;;;;1.20;0.60;;;;;;;10.72;52.43;99944.00;105349;1254;60747;-69
2023/03/17 04:02:40;;;;;;;0.40;0.40;;;;;;;10.73;52.68;99943.44;105301;1249;72613;-68
2023/03/17 04:05:09;;;;;;;0.70;0.60;;;;;;;10.70;52.13;99948.62;105173;1254;68257;-70
2023/03/17 04:07:43;;;;;;;0.40;0.40;;;;;;;10.68;52.44;99948.01;105310;1257;72027;-69
2023/03/17 04:10:11;;;;;;;0.50;0.50;;;;;;;10.64;52.30;99955.13;105283;1252;60824;-69
2023/03/17 04:12:40;;;;;;;0.60;0.60;;;;;;;10.61;52.69;99957.73;105620;1248;60879;-69
2023/03/17 04:15:10;;;;;;;0.60;0.60;;;;;;;10.65;53.22;99965.11;105184;1263;73586;-71
2023/03/17 04:17:40;;;;;;;0.50;0.50;;;;;;;10.58;52.72;99964.86;105438;1252;70018;-69
2023/03/17 04:20:09;;;;;;;0.90;0.70;;;;;;;10.65;52.93;99967.37;105376;1248;71010;-70
2023/03/17 04:22:38;;;;;;;0.80;0.60;;;;;;;10.66;52.88;99970.17;105321;1253;60752;-70
2023/03/17 04:25:07;;;;;;;1.30;0.60;;;;;;;10.61;52.82;99973.14;105429;1251;60790;-70
2023/03/17 04:27:36;;;;;;;0.60;0.60;;;;;;;10.59;53.22;99978.13;105279;1249;73633;-69
2023/03/17 04:30:05;;;;;;;0.70;0.50;;;;;;;10.66;53.25;99980.48;106945;1251;69552;-69
2023/03/17 04:32:34;;;;;;;2.10;0.80;;;;;;;10.74;52.72;99982.46;108999;1248;72178;-69
2023/03/17 04:35:10;;;;;;;2.50;0.70;;;;;;;10.76;52.41;99981.88;106161;1251;60834;-69
2023/03/17 04:37:48;;;;;;;1.00;0.50;;;;;;;10.73;52.48;99981.45;104903;1253;61066;-63
2023/03/17 04:40:17;;;;;;;0.70;0.60;;;;;;;10.76;52.38;99986.61;105626;1251;71530;-63
2023/03/17 04:42:45;;;;;;;2.10;0.50;;;;;;;10.70;52.63;99990.69;105227;1251;68440;-63
2023/03/17 04:45:14;;;;;;;0.40;0.40;;;;;;;10.66;52.35;99995.06;105350;1253;71405;-67
2023/03/17 04:47:47;;;;;;;2.30;0.60;;;;;;;10.67;52.88;99993.61;105337;1253;60786;-67
2023/03/17 04:50:16;;;;;;;0.60;0.40;;;;;;;10.63;52.65;100000.61;105289;1251;61180;-68
2023/03/17 04:52:45;;;;;;;1.30;0.60;;;;;;;10.65;53.07;99999.29;105321;1249;71889;-67
2023/03/17 04:55:14;;;;;;;1.40;1.30;;;;;;;10.63;52.97;100005.33;105309;1250;68717;-68
2023/03/17 04:57:43;;;;;;;0.90;0.50;;;;;;;10.59;52.88;100010.38;105233;1267;71345;-67
2023/03/17 05:00:12;;;;;;;0.80;0.70;;;;;;;10.58;53.20;100010.58;105347;1253;60872;-67
2023/03/17 05:02:40;;;;;;;0.80;0.50;;;;;;;10.67;53.09;100012.02;105369;1251;60750;-67
2023/03/17 05:05:12;;;;;;;1.20;0.80;;;;;;;10.65;52.69;100016.13;105372;1253;71999;-67
2023/03/17 05:07:43;;;;;;;0.90;0.60;;;;;;;10.66;53.35;100013.98;105305;1248;69261;-63
2023/03/17 05:10:12;;;;;;;1.40;0.70;;;;;;;10.64;53.20;100015.98;105172;1253;71564;-60
2023/03/17 05:12:41;;;;;;;1.00;0.70;;;;;;;10.64;52.92;100016.52;105233;1257;60873;-62
2023/03/17 05:15:10;;;;;;;1.00;0.60;;;;;;;10.54;53.05;100016.20;105283;1249;63131;-62
2023/03/17 05:17:38;;;;;;;1.50;0.90;;;;;;;10.49;53.48;100017.05;105259;1248;72109;-62
2023/03/17 05:20:09;;;;;;;0.90;0.60;;;;;;;10.57;53.33;100023.42;105260;1253;70002;-66
2023/03/17 05:22:38;;;;;;;1.00;0.80;;;;;;;10.67;53.54;100025.37;105269;1248;72218;-65
2023/03/17 05:25:08;;;;;;;1.90;1.00;;;;;;;10.68;53.59;100027.75;105435;1251;60861;-63
2023/03/17 05:27:36;;;;;;;1.10;0.70;;;;;;;10.70;53.89;100029.77;105388;1248;60870;-64
2023/03/17 05:30:05;;;;;;;3.10;0.90;;;;;;;10.71;53.73;100030.80;105311;1252;71765;-64
2023/03/17 05:32:35;;;;;;;0.60;0.60;;;;;;;10.78;53.77;100033.88;105513;1248;68795;-64
2023/03/17 05:35:04;;;;;;;1.70;1.20;;;;;;;10.83;53.96;100031.08;105422;1248;71633;-63
2023/03/17 05:37:33;;;;;;;0.90;0.70;;;;;;;10.85;53.61;100033.95;105582;1261;60804;-64
2023/03/17 05:40:03;;;;;;;1.00;0.90;;;;;;;10.78;53.56;100034.57;105410;1251;60901;-64
2023/03/17 05:42:32;;;;;;;1.10;1.00;;;;;;;10.69;54.40;100034.39;105260;1254;74054;-64
2023/03/17 05:45:00;;;;;;;1.40;1.10;;;;;;;10.73;54.80;100036.52;104874;1254;69419;-65
2023/03/17 05:47:32;;;;;;;0.80;0.80;;;;;;;10.79;55.01;100041.73;105075;1248;71907;-66
2023/03/17 05:50:01;;;;;;;1.00;0.90;;;;;;;10.83;54.84;100046.15;105027;1254;60940;-62
2023/03/17 05:52:30;;;;;;;1.00;0.90;;;;;;;10.67;57.27;100046.91;105126;1248;60868;-63
2023/03/17 05:54:59;;;;;;;1.10;0.90;;;;;;;10.67;62.49;100049.02;105104;1253;71532;-64
2023/03/17 05:57:27;;;;;;;0.90;0.80;;;;;;;10.69;58.47;100049.64;105260;1254;69878;-64
2023/03/17 05:59:56;;;;;;;1.80;1.10;;;;;;;10.66;58.07;100054.47;105344;1247;71650;-68
2023/03/17 06:02:24;;;;;;;0.90;0.90;;;;;;;10.61;59.36;100057.80;104574;1256;60863;-65
2023/03/17 06:04:53;;;;;;;1.10;1.00;;;;;;;10.60;60.22;100059.05;104910;1247;60849;-67
2023/03/17 06:07:21;;;;;;;1.40;1.20;;;;;;;10.53;61.67;100057.21;105214;1251;73174;-66
2023/03/17 06:09:49;;;;;;;0.90;0.90;;;;;;;10.68;60.05;100062.48;105257;1250;70424;-65
2023/03/17 06:12:19;;;;;;;1.30;1.10;;;;;;;10.70;60.80;100063.64;105303;1251;71631;-67
2023/03/17 06:14:51;;;;;;;1.90;1.10;;;;;;;10.70;60.82;100065.91;105427;1251;61688;-65
2023/03/17 06:17:38;;;;;;;1.70;1.50;;;;;;;10.69;61.32;100070.68;104824;1247;61697;-62
2023/03/17 06:20:07;;;;;;;1.30;1.20;;;;;;;10.69;61.18;100071.38;105261;1261;73572;-65
2023/03/17 06:22:36;;;;;;;1.40;1.30;;;;;;;10.69;61.12;100074.17;105175;1259;70555;-65
2023/03/17 06:25:09;;;;;;;1.30;1.20;;;;;;;10.74;60.88;100072.77;104899;1264;71266;-64
2023/03/17 06:27:39;;;;;;;2.30;1.30;;;;;;;10.79;61.10;100073.82;105600;1251;61691;-64
2023/03/17 06:30:10;;;;;;;1.40;1.10;;;;;;;10.88;61.26;100080.16;105023;1253;61560;-64
2023/03/17 06:32:39;;;;;;;1.20;1.20;;;;;;;10.82;60.76;100084.43;106720;1247;72266;-61
2023/03/17 06:35:08;;;;;;;1.20;1.10;;;;;;;10.95;60.94;100081.83;108523;1250;69834;-67
2023/03/17 06:37:37;;;;;;;1.20;1.10;;;;;;;10.91;60.39;100078.98;104717;1248;73259;-62
2023/03/17 06:40:09;;;;;;;1.70;1.30;;;;;;;10.96;59.95;100080.71;105263;1248;61612;-63
2023/03/17 06:42:37;;;;;;;1.50;1.40;;;;;;;10.93;59.96;100078.73;105197;1247;61628;-64
2023/03/17 06:45:08;;;;;;;1.40;1.30;;;;;;;10.91;59.35;100079.86;105248;1261;72581;-65
2023/03/17 06:47:37;;;;;;;1.30;1.10;;;;;;;10.96;59.47;100084.41;105241;1253;70418;-61
2023/03/17 06:50:08;;;;;;;1.60;1.50;;;;;;;11.00;59.32;100086.38;105244;1251;71645;-65
2023/03/17 06:52:39;;;;;;;1.50;1.40;;;;;;;11.03;59.02;100082.23;104594;1251;61793;-63
2023/03/17 06:55:08;;;;;;;1.20;1.00;;;;;;;11.06;59.02;100079.30;105199;1260;61562;-65
2023/03/17 06:57:37;;;;;;;1.70;1.40;;;;;;;11.13;59.25;100078.50;105247;1251;71882;-66
2023/03/17 07:00:06;;;;;;;1.40;1.30;;;;;;;11.17;58.22;100078.54;105412;1259;69497;-64
2023/03/17 07:02:34;;;;;;;1.30;1.10;;;;;;;11.18;57.76;100079.55;105189;1253;71214;-63
2023/03/17 07:05:05;;;;;;;1.40;1.30;;;;;;;11.14;57.85;100083.23;105221;1248;61677;-66
2023/03/17 07:07:34;;;;;;;1.40;1.30;;;;;;;11.15;57.97;100086.17;105305;1250;61564;-63
2023/03/17 07:10:03;;;;;;;1.10;1.00;;;;;;;11.17;57.83;100086.59;105221;1248;73472;-64
2023/03/17 07:12:34;;;;;;;1.40;1.30;;;;;;;11.19;57.13;100088.81;105066;1271;69000;-65
2023/03/17 07:15:04;;;;;;;1.80;1.20;;;;;;;11.18;56.35;100094.13;105232;1248;71381;-64
2023/03/17 07:17:32;;;;;;;1.90;1.30;;;;;;;11.22;56.83;100094.12;105225;1253;61573;-65
2023/03/17 07:20:00;;;;;;;2.60;1.70;;;;;;;11.24;56.58;100091.95;105256;1259;61551;-66
2023/03/17 07:22:29;;;;;;;2.20;1.70;;;;;;;11.13;56.64;100096.92;105319;1251;73434;-67
2023/03/17 07:24:59;;;;;;;2.60;1.60;;;;;;;11.06;56.79;100100.72;105180;1256;68964;-66
2023/03/17 07:27:28;;;;;;;1.80;1.50;;;;;;;10.96;56.94;100097.40;105284;1254;72243;-65
2023/03/17 07:29:56;;;;;;;2.80;1.70;;;;;;;10.97;56.84;100100.36;105245;1257;61701;-66
2023/03/17 07:32:25;;;;;;;2.40;1.40;;;;;;;11.01;56.74;100100.71;105281;1248;61639;-65
2023/03/17 07:34:53;;;;;;;2.80;1.50;;;;;;;11.20;56.53;100101.59;105262;1249;73232;-65
2023/03/17 07:37:23;;;;;;;2.60;1.60;;;;;;;11.15;55.67;100102.99;105255;1260;70706;-65
2023/03/17 07:39:51;;;;;;;2.90;1.80;;;;;;;11.05;56.13;100098.27;105208;1251;73402;-65
2023/03/17 07:42:24;;;;;;;1.50;1.20;;;;;;;11.01;56.23;100102.66;105505;1251;61560;-67
2023/03/17 07:44:53;;;;;;;2.20;1.20;;;;;;;11.09;55.93;100104.98;104987;1253;61666;-65
2023/03/17 07:47:21;;;;;;;1.40;1.30;;;;;;;11.13;55.81;100110.46;105249;1247;72831;-66
2023/03/17 07:49:53;;;;;;;2.30;1.30;;;;;;;11.07;55.40;100113.32;105145;1252;69355;-67
2023/03/17 07:52:22;;;;;;;2.10;1.40;;;;;;;11.08;55.92;100114.52;104633;1255;73520;-65
2023/03/17 07:54:52;;;;;;;1.70;1.30;;;;;;;11.22;55.98;100114.31;105185;1260;61724;-65
2023/03/17 07:57:20;;;;;;;2.40;1.50;;;;;;;11.32;55.51;100117.96;105179;1263;61605;-65
2023/03/17 07:59:49;;;;;;;2.60;1.60;;;;;;;11.32;54.91;100120.09;105454;1247;72716;-65
2023/03/17 08:02:18;;;;;;;3.60;1.70;;;;;;;11.30;55.18;100123.67;105238;1247;68032;-66
2023/03/17 08:04:47;;;;;;;2.40;1.50;;;;;;;11.33;55.46;100124.61;105677;1247;71627;-66
2023/03/17 08:07:16;;;;;;;1.90;1.70;;;;;;;11.34;55.23;100124.92;105451;1251;61701;-68
2023/03/17 08:09:45;;;;;;;2.60;1.50;;;;;;;11.41;54.90;100126.42;105401;1250;61639;-66
2023/03/17 08:12:13;;;;;;;2.30;1.90;;;;;;;11.39;54.97;100130.01;105532;1250;73939;-63
2023/03/17 08:14:43;;;;;;;2.00;1.30;;;;;;;11.25;55.01;100132.96;105593;1251;68959;-64
2023/03/17 08:17:12;;;;;;;1.70;1.50;;;;;;;11.29;55.00;100134.58;105416;1251;72255;-63
2023/03/17 08:19:41;;;;;;;1.80;1.70;;;;;;;11.27;55.27;100138.53;105159;1263;61691;-65
2023/03/17 08:22:12;;;;;;;2.20;1.80;;;;;;;11.30;55.58;100139.47;105188;1248;61628;-64
2023/03/17 08:24:43;;;;;;;1.70;1.30;;;;;;;11.37;55.31;100139.72;104797;1247;74106;-63
2023/03/17 08:27:12;;;;;;;2.20;1.60;;;;;;;11.46;55.08;100139.21;105384;1249;70949;-65
2023/03/17 08:29:41;;;;;;;1.70;1.60;;;;;;;11.40;55.14;100137.68;104749;1266;73742;-63
2023/03/17 08:32:10;;;;;;;1.90;1.70;;;;;;;11.38;55.40;100137.92;105355;1250;61685;-67
2023/03/17 08:34:40;;;;;;;2.00;1.10;;;;;;;11.46;55.15;100141.84;105913;1250;61652;-63
2023/03/17 08:37:08;;;;;;;1.60;1.50;;;;;;;11.53;55.08;100146.29;105466;1256;74128;-63
2023/03/17 08:39:39;;;;;;;1.40;1.30;;;;;;;11.65;55.24;100144.60;105319;1254;69451;-63
2023/03/17 08:42:10;;;;;;;1.50;1.40;;;;;;;11.70;54.09;100147.91;105428;1250;72323;-64
2023/03/17 08:44:40;;;;;;;1.20;1.10;;;;;;;11.77;53.59;100146.77;105388;1249;61714;-64
2023/03/17 08:47:11;;;;;;;1.60;1.30;;;;;;;11.78;53.77;100152.01;105171;1253;61578;-63
2023/03/17 08:49:40;;;;;;;1.40;0.90;;;;;;;11.78;53.41;100155.68;104757;1256;73998;-64
2023/03/17 08:52:10;;;;;;;1.20;1.10;;;;;;;11.73;53.05;100147.46;104763;1254;70986;-64
2023/03/17 08:54:38;;;;;;;1.40;1.00;;;;;;;11.80;53.74;100154.39;105476;1253;73777;-63
2023/03/17 08:57:07;;;;;;;1.80;1.40;;;;;;;11.81;53.54;100156.11;105340;1253;61615;-67
2023/03/17 08:59:36;;;;;;;1.20;1.10;;;;;;;11.79;52.98;100159.00;105311;1253;61500;-63
2023/03/17 09:02:04;;;;;;;1.50;1.10;;;;;;;11.67;53.61;100160.18;104950;1256;71850;-63
2023/03/17 09:04:33;;;;;;;2.50;1.30;;;;;;;11.69;53.98;100157.29;105623;1248;69059;-63
2023/03/17 09:07:02;;;;;;;1.60;1.40;;;;;;;11.69;53.36;100160.27;105240;1260;72202;-63
2023/03/17 09:09:34;;;;;;;1.70;1.20;;;;;;;11.73;53.72;100159.94;105188;1248;61717;-62
2023/03/17 09:12:04;;;;;;;1.30;0.90;;;;;;;11.80;53.72;100160.70;105222;1248;61689;-62
2023/03/17 09:14:33;;;;;;;1.60;1.10;;;;;;;11.82;53.22;100159.75;105291;1250;72239;-63
2023/03/17 09:17:10;;;;;;;;;;;;;;;11.69;53.62;100165.17;106022;1253;68088;-63
2023/03/17 09:19:39;;;;;;;1.30;1.20;;;;;;;11.74;53.90;100166.92;105691;1250;72720;-64
2023/03/17 09:22:12;;;;;;;1.10;1.00;;;;;;;11.78;53.60;100162.55;105402;1250;61756;-63
2023/03/17 09:24:41;;;;;;;2.20;1.00;;;;;;;11.78;53.42;100165.88;104922;1254;62235;-62
2023/03/17 09:27:12;;;;;;;0.90;0.90;;;;;;;11.82;53.26;100171.36;105255;1257;73413;-63
2023/03/17 09:29:41;;;;;;;1.20;1.10;;;;;;;11.80;52.90;100176.34;105513;1251;69026;-62
2023/03/17 09:32:10;;;;;;;2.50;1.60;;;;;;;11.63;52.94;100175.75;105425;1253;71652;-62
2023/03/17 09:34:40;;;;;;;1.00;1.00;;;;;;;11.63;53.59;100182.94;105376;1253;61704;-62
2023/03/17 09:37:09;;;;;;;1.10;1.10;;;;;;;11.68;54.23;100186.27;105663;1250;61810;-65
2023/03/17 09:39:38;;;;;;;1.00;0.90;;;;;;;11.76;54.26;100183.50;105694;1247;73220;-64
2023/03/17 09:42:18;;;;;;;1.50;1.10;;;;;;;11.77;53.52;100181.57;105533;1250;68448;-66
2023/03/17 09:44:57;;;;;;;1.70;1.10;;;;;;;11.75;53.17;100183.73;105551;1250;72565;-64
2023/03/17 09:47:38;;;;;;;1.30;1.00;;;;;;;11.74;53.51;100183.44;105286;1251;61641;-66
2023/03/17 09:50:14;;;;;;;1.00;0.90;;;;;;;11.69;53.65;100187.11;105531;1253;61650;-64
2023/03/17 09:52:43;;;;;;;1.50;1.00;;;;;;;11.74;53.65;100185.39;105155;1249;73076;-65
2023/03/17 09:55:21;;;;;;;1.20;1.10;;;;;;;11.71;53.88;100187.93;104992;1250;68111;-65
2023/03/17 09:57:51;;;;;;;4.00;3.30;;;;;;;11.82;54.02;100185.05;106921;1247;71675;-66
2023/03/17 10:00:26;;;;;;;2.00;1.70;;;;;;;11.92;53.52;100188.39;105392;1249;61772;-65
2023/03/17 10:02:56;;;;;;;5.00;3.20;;;;;;;11.89;53.08;100188.48;105159;1263;61731;-64
2023/03/17 10:05:33;;;;;;;3.90;2.60;;;;;;;11.89;53.28;100188.27;104694;1262;72515;-64
2023/03/17 10:08:08;;;;;;;2.60;2.10;;;;;;;11.85;53.05;100186.86;105731;1248;70148;-64
2023/03/17 10:11:03;;;;;;;1.90;1.50;;;;;;;11.78;53.24;100191.35;105008;1253;72062;-65
2023/03/17 10:13:50;;;;;;;1.10;1.00;;;;;;;11.80;53.45;100194.77;105768;1249;61631;-66
2023/03/17 10:17:00;;;;;;;1.20;1.10;;;;;;;11.87;53.22;100195.06;105194;1249;61698;-64
2023/03/17 10:19:29;;;;;;;1.90;1.30;;;;;;;12.01;53.25;100196.08;105242;1249;73459;-67
2023/03/17 10:22:51;;;;;;;2.60;1.80;;;;;;;12.06;53.67;100193.95;105206;1252;69653;-66
2023/03/17 10:25:22;;;;;;;2.90;1.80;;;;;;;12.07;52.98;100191.98;104831;1263;72326;-66
2023/03/17 10:27:59;;;;;;;2.30;1.60;;;;;;;11.83;52.89;100194.84;105443;1248;61577;-66
2023/03/17 10:30:29;;;;;;;3.50;1.60;;;;;;;11.80;53.05;100194.24;105539;1247;61625;-65
2023/03/17 10:32:59;;;;;;;2.30;2.00;;;;;;;11.96;54.22;100193.82;105225;1254;72697;-67
2023/03/17 10:35:28;;;;;;;2.00;1.80;;;;;;;12.02;52.93;100196.39;105195;1249;68268;-67
2023/03/17 10:37:57;;;;;;;2.80;1.50;;;;;;;12.00;52.57;100192.10;105680;1250;71141;-65
2023/03/17 10:40:43;;;;;;;4.20;2.10;;;;;;;12.04;52.97;100200.02;105159;1254;61652;-65
2023/03/17 10:43:16;;;;;;;3.40;1.50;;;;;;;12.07;53.18;100203.39;104827;1251;61633;-65
2023/03/17 10:45:59;;;;;;;1.60;1.20;;;;;;;11.94;52.85;100205.52;104947;1253;73819;-65
2023/03/17 10:48:30;;;;;;;1.90;1.30;;;;;;;11.97;53.42;100206.62;105674;1249;70917;-65
2023/03/17 10:50:59;;;;;;;1.50;1.10;;;;;;;12.02;53.59;100208.33;105596;1250;72222;-67
2023/03/17 10:53:27;;;;;;;3.40;1.30;;;;;;;12.13;53.40;100205.61;105579;1248;61717;-63
2023/03/17 10:56:06;;;;;;;1.70;1.30;;;;;;;12.19;52.94;100211.70;104701;1256;62029;-64
2023/03/17 10:58:40;;;;;;;3.50;1.70;;;;;;;12.18;52.23;100212.12;105471;1253;73421;-62
2023/03/17 11:01:21;;;;;;;3.60;1.20;;;;;;;12.08;52.33;100213.23;105267;1247;68908;-63
2023/03/17 11:03:50;;;;;;;3.20;1.90;;;;;;;12.14;52.86;100213.69;105117;1252;72040;-65
2023/03/17 11:06:20;;;;;;;2.00;1.40;;;;;;;12.22;52.72;100213.51;105347;1256;61720;-63
2023/03/17 11:08:53;;;;;;;2.20;1.60;;;;;;;12.29;52.67;100213.42;105383;1247;61573;-62
2023/03/17 11:11:25;;;;;;;3.30;1.30;;;;;;;12.33;52.33;100210.98;105294;1253;73419;-62
2023/03/17 11:14:12;;;;;;;5.90;1.90;;;;;;;12.20;52.19;100209.39;105381;1247;69606;-63
2023/03/17 11:16:54;;;;;;;3.00;1.80;;;;;;;12.22;52.40;100208.25;105268;1253;73018;-62
2023/03/17 11:19:32;;;;;;;3.20;1.60;;;;;;;12.32;52.34;100212.45;105624;1247;61625;-67
2023/03/17 11:22:19;;;;;;;9.70;2.50;;;;;;;12.33;51.60;100210.63;105608;1247;61686;-63
2023/03/17 11:24:58;;;;;;;2.70;1.80;;;;;;;12.36;52.06;100213.14;105530;1251;74221;-67
2023/03/17 11:27:30;;;;;;;1.80;1.50;;;;;;;12.32;52.76;100214.52;105596;1247;70912;-64
2023/03/17 11:30:02;;;;;;;2.20;1.50;;;;;;;12.26;52.54;100214.05;105499;1255;71202;-67
2023/03/17 11:32:39;;;;;;;1.40;1.30;;;;;;;12.18;52.14;100215.63;105687;1249;61608;-61
2023/03/17 11:35:27;;;;;;;1.50;1.10;;;;;;;12.18;52.25;100217.71;105190;1249;61732;-62
2023/03/17 11:38:14;;;;;;;;;;;;;;;12.31;52.56;100220.39;105326;1254;74154;-64
2023/03/17 11:41:03;;;;;;;3.50;1.60;;;;;;;12.36;51.78;100222.30;105695;1247;68996;-65
2023/03/17 11:43:50;;;;;;;2.40;1.10;;;;;;;12.31;50.84;100223.71;106785;1247;71538;-65